Time;durP1;ratioP1;P1;durP2;ratioP2;P2;SDS_P1;SDS_P2;PMS_P1;PMS_P2;Temp;Humidity;BMP_temperature;BMP_pressure;BME280_temperature;BME280_humidity;BME280_pressure;Samples;Min_cycle;Max_cycle;Signal;HPM_P1;HPM_P2
2022/09/14 00:00:31;;;;;;;13.57;8.07;;;-37.00;99.90;;;;;;5080524;28;20195;-73
2022/09/14 00:02:56;;;;;;;11.53;8.27;;;-40.00;99.90;;;;;;5076766;28;20195;-70
2022/09/14 00:05:22;;;;;;;8.73;7.77;;;-40.00;99.90;;;;;;5082349;28;20184;-72
2022/09/14 00:07:48;;;;;;;15.37;9.03;;;-40.00;99.90;;;;;;5086908;28;20206;-72
2022/09/14 00:10:14;;;;;;;10.90;8.17;;;-32.00;99.90;;;;;;5083643;28;20191;-69
2022/09/14 00:12:39;;;;;;;16.23;9.33;;;-39.20;99.90;;;;;;5083089;28;20180;-72
2022/09/14 00:15:06;;;;;;;21.20;9.53;;;-39.00;99.90;;;;;;5076092;28;20704;-74
2022/09/14 00:17:32;;;;;;;14.07;7.63;;;-40.00;99.90;;;;;;5081203;28;20183;-69
2022/09/14 00:19:58;;;;;;;11.40;7.93;;;-40.00;99.90;;;;;;5076145;28;20253;-73
2022/09/14 00:22:24;;;;;;;9.30;8.43;;;-40.00;99.90;;;;;;5079290;28;20583;-71
2022/09/14 00:24:50;;;;;;;17.30;8.80;;;-40.00;99.90;;;;;;5082394;28;20227;-71
2022/09/14 00:27:16;;;;;;;9.27;7.77;;;-40.00;99.90;;;;;;5079961;28;20183;-69
2022/09/14 00:29:41;;;;;;;11.97;8.27;;;-40.00;99.90;;;;;;5081958;28;20186;-76
2022/09/14 00:32:07;;;;;;;7.53;6.50;;;-40.00;99.90;;;;;;5075933;28;20187;-75
2022/09/14 00:34:33;;;;;;;22.60;8.53;;;-37.30;99.90;;;;;;5075249;28;20522;-75
2022/09/14 00:36:59;;;;;;;10.57;7.63;;;-37.30;99.90;;;;;;5075637;28;20266;-73
2022/09/14 00:39:27;;;;;;;9.07;7.83;;;-34.80;99.90;;;;;;5080580;28;20270;-72
2022/09/14 00:41:53;;;;;;;7.93;7.13;;;-40.00;99.90;;;;;;5075683;28;20229;-73
2022/09/14 00:44:18;;;;;;;9.30;6.97;;;-40.00;99.90;;;;;;5075672;28;20715;-74
2022/09/14 00:46:47;;;;;;;12.87;7.93;;;-35.30;99.90;;;;;;5085829;28;20182;-72
2022/09/14 00:49:20;;;;;;;13.30;7.40;;;-40.00;99.90;;;;;;5088069;28;20225;-72
2022/09/14 00:51:53;;;;;;;7.57;6.93;;;-40.00;99.90;;;;;;5082103;28;20203;-74
2022/09/14 00:54:19;;;;;;;14.70;6.70;;;-40.00;99.90;;;;;;5079060;28;20203;-74
2022/09/14 00:56:46;;;;;;;7.97;7.00;;;-40.00;99.90;;;;;;5080107;28;20209;-72
2022/09/14 00:59:18;;;;;;;7.50;5.13;;;-40.00;99.90;;;;;;5075431;28;20203;-69
2022/09/14 01:01:45;;;;;;;7.63;6.90;;;-40.00;99.90;;;;;;5077700;28;20199;-75
2022/09/14 01:04:11;;;;;;;15.30;7.27;;;-40.00;99.90;;;;;;5077694;28;20183;-74
2022/09/14 01:06:50;;;;;;;4.67;4.33;;;-40.00;99.90;;;;;;5085497;28;20456;-71
2022/09/14 01:09:33;;;;;;;8.20;4.73;;;-40.00;99.90;;;;;;5079702;28;20203;-75
2022/09/14 01:12:19;;;;;;;5.07;4.67;;;-40.00;99.90;;;;;;5087527;28;20186;-74
2022/09/14 01:14:47;;;;;;;10.43;5.60;;;-40.00;99.90;;;;;;5075680;28;20183;-73
2022/09/14 01:17:42;;;;;;;8.13;4.07;;;-40.00;99.90;;;;;;5075284;28;20538;-76
2022/09/14 01:20:34;;;;;;;5.07;4.57;;;-40.00;99.90;;;;;;5080450;28;20211;-73
2022/09/14 01:23:09;;;;;;;4.07;3.77;;;-40.00;99.90;;;;;;5086711;28;20589;-74
2022/09/14 01:26:03;;;;;;;4.83;4.23;;;-40.00;99.90;;;;;;5077960;28;20646;-75
2022/09/14 01:28:42;;;;;;;8.13;4.03;;;-40.00;99.90;;;;;;5079606;28;20274;-72
2022/09/14 01:31:17;;;;;;;4.47;4.10;;;-40.00;99.90;;;;;;5075117;28;20183;-71
2022/09/14 01:33:52;;;;;;;15.57;5.07;;;-40.00;99.90;;;;;;5075043;28;20206;-73
2022/09/14 01:36:19;;;;;;;12.07;4.53;;;-40.00;99.90;;;;;;5074075;28;20190;-74
2022/09/14 01:38:50;;;;;;;7.30;4.27;;;-40.00;99.90;;;;;;5077769;28;20208;-73
2022/09/14 01:41:21;;;;;;;7.20;4.47;;;-40.00;99.90;;;;;;5081344;28;20274;-74
2022/09/14 01:44:36;;;;;;;4.67;4.27;;;-40.00;99.90;;;;;;5075614;28;20179;-75
2022/09/14 01:47:38;;;;;;;5.30;3.97;;;-40.00;99.90;;;;;;5071016;28;20203;-77
2022/09/14 01:50:11;;;;;;;14.03;6.00;;;-40.00;99.90;;;;;;5078588;28;20206;-67
2022/09/14 01:53:00;;;;;;;6.80;4.93;;;-40.00;99.90;;;;;;5075480;28;20203;-75
2022/09/14 01:55:44;;;;;;;14.93;4.80;;;-40.00;99.90;;;;;;5085015;28;20179;-73
2022/09/14 01:58:19;;;;;;;13.13;4.83;;;-40.00;99.90;;;;;;5086019;28;20176;-75
2022/09/14 02:00:47;;;;;;;6.03;4.67;;;-40.00;99.90;;;;;;5082638;28;20598;-68
2022/09/14 02:03:20;;;;;;;7.27;4.43;;;-40.00;99.90;;;;;;5082056;28;20273;-76
2022/09/14 02:06:02;;;;;;;7.47;5.23;;;-40.00;99.90;;;;;;5080762;28;20236;-78
2022/09/14 02:08:29;;;;;;;20.37;5.97;;;-40.00;99.90;;;;;;5077584;28;20199;-73
2022/09/14 02:10:56;;;;;;;4.50;4.13;;;-40.00;99.90;;;;;;5085963;28;20175;-74
2022/09/14 02:13:23;;;;;;;13.37;6.43;;;-40.00;99.90;;;;;;5079041;28;20252;-70
2022/09/14 02:15:49;;;;;;;14.40;5.50;;;-40.00;99.90;;;;;;5082472;28;20183;-70
2022/09/14 02:18:15;;;;;;;7.60;4.67;;;-40.00;99.90;;;;;;5085369;28;20489;-76
2022/09/14 02:20:46;;;;;;;8.47;4.23;;;-40.00;99.90;;;;;;5081521;28;20579;-73
2022/09/14 02:23:12;;;;;;;7.27;4.83;;;-40.00;99.90;;;;;;5085750;28;20197;-76
2022/09/14 02:25:39;;;;;;;6.10;4.20;;;-37.30;99.90;;;;;;5078336;28;20187;-77
2022/09/14 02:28:06;;;;;;;8.27;4.77;;;-40.00;99.90;;;;;;5078283;28;20201;-76
2022/09/14 02:30:55;;;;;;;6.00;4.53;;;-40.00;99.90;;;;;;5078700;28;20167;-73
2022/09/14 02:33:35;;;;;;;6.67;4.80;;;-40.00;99.90;;;;;;5078063;28;20179;-69
2022/09/14 02:36:13;;;;;;;10.87;5.03;;;-40.00;99.90;;;;;;5080796;28;20473;-74
2022/09/14 02:39:13;;;;;;;6.63;4.90;;;-40.00;99.90;;;;;;5078366;28;20183;-72
2022/09/14 02:41:49;;;;;;;7.77;5.20;;;-40.00;99.90;;;;;;5087534;28;20218;-75
2022/09/14 02:44:26;;;;;;;7.70;4.37;;;-40.00;99.90;;;;;;5084528;28;20203;-70
2022/09/14 02:47:06;;;;;;;6.10;5.13;;;-40.00;99.90;;;;;;5089889;28;20175;-68
2022/09/14 02:50:04;;;;;;;12.13;6.57;;;-40.00;99.90;;;;;;5084605;28;20636;-69
2022/09/14 02:52:37;;;;;;;16.90;6.00;;;-40.00;99.90;;;;;;5078044;28;20195;-72
2022/09/14 02:55:13;;;;;;;8.73;4.47;;;-40.00;99.90;;;;;;5078155;28;20187;-69
2022/09/14 02:58:08;;;;;;;6.73;6.03;;;-36.10;99.90;;;;;;5080050;28;20229;-73
2022/09/14 03:00:41;;;;;;;13.23;5.60;;;-35.50;99.90;;;;;;5079968;28;20202;-71
2022/09/14 03:03:08;;;;;;;7.43;5.50;;;-31.60;99.90;;;;;;5083611;28;20187;-68
2022/09/14 03:05:35;;;;;;;8.20;5.40;;;-39.30;99.90;;;;;;5084569;28;20582;-69
2022/09/14 03:08:01;;;;;;;8.47;5.57;;;-39.40;99.90;;;;;;5077615;28;20274;-76
2022/09/14 03:10:27;;;;;;;8.93;5.33;;;-40.00;99.90;;;;;;5077688;28;20177;-75
2022/09/14 03:12:53;;;;;;;7.30;6.00;;;-40.00;99.90;;;;;;5084681;28;20217;-76
2022/09/14 03:15:19;;;;;;;14.77;6.17;;;-38.90;99.90;;;;;;5082148;28;20198;-68
2022/09/14 03:17:46;;;;;;;17.67;6.27;;;-40.00;99.90;;;;;;5083076;28;20183;-73
2022/09/14 03:20:18;;;;;;;9.37;6.80;;;-40.00;99.90;;;;;;5080291;28;20183;-70
2022/09/14 03:22:44;;;;;;;7.10;5.27;;;-40.00;99.90;;;;;;5077534;28;20234;-75
2022/09/14 03:25:10;;;;;;;6.13;5.60;;;-40.00;99.90;;;;;;5077676;28;20236;-71
2022/09/14 03:27:36;;;;;;;7.73;5.73;;;-40.00;99.90;;;;;;5080979;28;20277;-69
2022/09/14 03:30:03;;;;;;;6.67;6.03;;;-40.00;99.90;;;;;;5080600;28;20254;-68
2022/09/14 03:32:29;;;;;;;10.40;5.57;;;-40.00;99.90;;;;;;5080814;28;20490;-69
2022/09/14 03:34:56;;;;;;;11.43;6.20;;;-40.00;99.90;;;;;;5083695;28;20179;-68
2022/09/14 03:37:22;;;;;;;17.03;6.80;;;-37.00;99.90;;;;;;5078427;28;20175;-68
2022/09/14 03:39:48;;;;;;;9.27;5.27;;;-35.90;99.90;;;;;;5077658;28;20182;-67
2022/09/14 03:42:14;;;;;;;7.67;5.93;;;-38.40;99.90;;;;;;5084465;28;20183;-68
2022/09/14 03:44:39;;;;;;;8.47;6.87;;;-36.10;99.90;;;;;;5080546;28;20292;-68
2022/09/14 03:47:07;;;;;;;16.30;7.80;;;-30.20;99.90;;;;;;5076987;28;20179;-66
2022/09/14 03:49:33;;;;;;;9.90;6.53;;;-39.10;99.90;;;;;;5084139;28;20199;-65
2022/09/14 03:51:59;;;;;;;27.20;9.53;;;-36.80;99.90;;;;;;5083047;28;20206;-68
2022/09/14 03:54:26;;;;;;;22.03;8.70;;;-40.00;99.90;;;;;;5083711;28;20168;-68
2022/09/14 03:56:52;;;;;;;12.13;7.73;;;-40.00;99.90;;;;;;5082221;28;20177;-67
2022/09/14 03:59:19;;;;;;;12.03;7.90;;;-40.00;99.90;;;;;;5076522;28;20720;-69
2022/09/14 04:01:45;;;;;;;40.63;10.07;;;-37.90;99.90;;;;;;5079338;28;20278;-68
2022/09/14 04:04:11;;;;;;;11.43;8.53;;;-37.90;99.90;;;;;;5081086;28;20659;-67
2022/09/14 04:06:37;;;;;;;12.60;8.70;;;-40.00;99.90;;;;;;5083125;28;20176;-67
2022/09/14 04:09:03;;;;;;;9.93;8.60;;;-40.00;99.90;;;;;;5082821;28;20498;-68
2022/09/14 04:11:30;;;;;;;13.27;10.90;;;-40.00;99.90;;;;;;5081215;28;20179;-68
2022/09/14 04:14:00;;;;;;;11.53;10.03;;;-40.00;99.90;;;;;;5081858;28;20187;-68
2022/09/14 04:16:27;;;;;;;11.53;9.97;;;-40.00;99.90;;;;;;5076084;28;20583;-69
2022/09/14 04:18:53;;;;;;;15.77;11.47;;;-40.00;99.90;;;;;;5076251;28;20460;-72
2022/09/14 04:21:22;;;;;;;35.97;12.87;;;-40.00;99.90;;;;;;5076359;28;20186;-69
2022/09/14 04:23:51;;;;;;;12.57;10.80;;;-40.00;99.90;;;;;;5076205;28;20194;-67
2022/09/14 04:26:19;;;;;;;14.20;11.57;;;-40.00;99.90;;;;;;5076408;28;20183;-67
2022/09/14 04:28:45;;;;;;;16.13;10.37;;;-40.00;99.90;;;;;;5075717;28;20218;-66
2022/09/14 04:31:12;;;;;;;11.67;10.57;;;-40.00;99.90;;;;;;5074751;28;20183;-68
2022/09/14 04:33:39;;;;;;;28.80;12.50;;;-40.00;99.90;;;;;;5081390;28;20210;-68
2022/09/14 04:36:14;;;;;;;15.60;12.27;;;-40.00;99.90;;;;;;5096798;28;20531;-68
2022/09/14 04:38:40;;;;;;;22.07;11.60;;;-40.00;99.90;;;;;;5082924;28;20181;-73
2022/09/14 04:41:09;;;;;;;15.77;12.30;;;-40.00;99.90;;;;;;5078793;28;20601;-70
2022/09/14 04:43:35;;;;;;;18.97;11.47;;;-40.00;99.90;;;;;;5075580;28;20187;-73
2022/09/14 04:46:15;;;;;;;17.50;12.00;;;-40.00;99.90;;;;;;5079959;28;20185;-69
2022/09/14 04:48:41;;;;;;;13.20;11.93;;;-40.00;99.90;;;;;;5082199;28;20198;-70
2022/09/14 04:51:17;;;;;;;12.77;11.13;;;-40.00;99.90;;;;;;5081759;28;20202;-74
2022/09/14 04:53:45;;;;;;;26.77;13.50;;;-40.00;99.90;;;;;;5080906;28;20182;-69
2022/09/14 04:56:13;;;;;;;13.90;12.30;;;-40.00;99.90;;;;;;5085803;28;20214;-68
2022/09/14 04:58:42;;;;;;;14.97;13.57;;;-40.00;99.90;;;;;;5074983;28;20483;-70
2022/09/14 05:01:10;;;;;;;14.13;12.13;;;-40.00;99.90;;;;;;5074661;28;20225;-69
2022/09/14 05:03:37;;;;;;;17.50;13.83;;;-40.00;99.90;;;;;;5075425;28;20183;-70
2022/09/14 05:06:24;;;;;;;14.70;13.43;;;-40.00;99.90;;;;;;5083198;28;20240;-68
2022/09/14 05:08:51;;;;;;;16.60;15.03;;;-40.00;99.90;;;;;;5076519;28;20252;-69
2022/09/14 05:11:22;;;;;;;15.77;13.57;;;-40.00;99.90;;;;;;5081082;28;20598;-69
2022/09/14 05:13:48;;;;;;;14.77;13.17;;;-40.00;99.90;;;;;;5075255;28;20198;-69
2022/09/14 05:16:18;;;;;;;15.73;14.13;;;-40.00;99.90;;;;;;5075451;28;20186;-69
2022/09/14 05:18:44;;;;;;;15.20;13.73;;;-40.00;99.90;;;;;;5078571;28;20220;-70
2022/09/14 05:21:12;;;;;;;19.07;15.03;;;-40.00;99.90;;;;;;5076134;28;20587;-70
2022/09/14 05:23:38;;;;;;;14.67;13.47;;;-40.00;99.90;;;;;;5081750;28;20175;-70
2022/09/14 05:26:04;;;;;;;16.90;15.37;;;-40.00;99.90;;;;;;5077197;28;20638;-71
2022/09/14 05:28:31;;;;;;;19.37;17.30;;;-40.00;99.90;;;;;;5076856;28;20303;-72
2022/09/14 05:30:57;;;;;;;17.97;16.07;;;-40.00;99.90;;;;;;5089186;28;20206;-68
2022/09/14 05:33:23;;;;;;;17.87;15.43;;;-40.00;99.90;;;;;;5090774;28;20174;-69
2022/09/14 05:35:50;;;;;;;18.30;14.83;;;-40.00;99.90;;;;;;5084384;28;20180;-71
2022/09/14 05:38:16;;;;;;;15.40;14.00;;;-40.00;99.90;;;;;;5077653;28;20183;-69
2022/09/14 05:40:42;;;;;;;17.57;15.97;;;-40.00;99.90;;;;;;5081664;28;20167;-68
2022/09/14 05:43:08;;;;;;;14.03;12.70;;;-40.00;99.90;;;;;;5074986;28;20194;-69
2022/09/14 05:45:34;;;;;;;14.47;12.97;;;-40.00;99.90;;;;;;5079426;28;20179;-68
2022/09/14 05:48:03;;;;;;;15.07;13.50;;;-40.00;99.90;;;;;;5073929;28;20206;-68
2022/09/14 05:50:33;;;;;;;14.43;13.23;;;-40.00;99.90;;;;;;5078682;28;20586;-69
2022/09/14 05:52:59;;;;;;;14.27;13.07;;;-40.00;99.90;;;;;;5079675;28;20195;-70
2022/09/14 05:55:25;;;;;;;19.23;14.70;;;-40.00;99.90;;;;;;5080769;28;20201;-72
2022/09/14 05:57:51;;;;;;;17.37;14.67;;;-40.00;99.90;;;;;;5078820;28;20258;-70
2022/09/14 06:00:18;;;;;;;16.00;14.53;;;-40.00;99.90;;;;;;5074138;28;20290;-73
2022/09/14 06:02:48;;;;;;;16.00;14.63;;;-40.00;99.90;;;;;;5074873;28;20187;-69
2022/09/14 06:05:14;;;;;;;16.77;15.13;;;-40.00;99.90;;;;;;5074889;28;20214;-69
2022/09/14 06:07:40;;;;;;;17.13;15.63;;;-40.00;99.90;;;;;;5074629;28;20256;-73
2022/09/14 06:10:07;;;;;;;17.30;15.17;;;-40.00;99.90;;;;;;5074636;28;20590;-69
2022/09/14 06:12:32;;;;;;;18.80;16.83;;;-40.00;99.90;;;;;;5074613;28;20179;-72
2022/09/14 06:14:58;;;;;;;18.60;16.90;;;-40.00;99.90;;;;;;5073322;28;20202;-70
2022/09/14 06:17:24;;;;;;;18.90;16.97;;;-40.00;99.90;;;;;;5079394;28;20175;-71
2022/09/14 06:19:50;;;;;;;20.83;17.37;;;-40.00;99.90;;;;;;5083450;28;20179;-73
2022/09/14 06:22:16;;;;;;;18.77;16.97;;;-40.00;99.90;;;;;;5077698;28;20181;-68
2022/09/14 06:24:42;;;;;;;20.70;18.73;;;-40.00;99.90;;;;;;5074481;28;20183;-69
2022/09/14 06:27:10;;;;;;;19.03;17.23;;;-40.00;99.90;;;;;;5074585;28;20191;-70
2022/09/14 06:29:36;;;;;;;23.77;20.00;;;-40.00;99.90;;;;;;5080021;28;20210;-71
2022/09/14 06:32:02;;;;;;;20.30;18.50;;;-40.00;99.90;;;;;;5079097;28;20183;-67
2022/09/14 06:34:29;;;;;;;20.63;18.50;;;-40.00;99.90;;;;;;5081323;28;20188;-68
2022/09/14 06:36:55;;;;;;;20.07;18.03;;;-40.00;99.90;;;;;;5082193;28;20477;-69
2022/09/14 06:39:21;;;;;;;22.17;19.63;;;-40.00;99.90;;;;;;5077264;28;20240;-70
2022/09/14 06:41:47;;;;;;;19.60;17.73;;;-40.00;99.90;;;;;;5077752;28;20187;-68
2022/09/14 06:44:13;;;;;;;20.13;18.10;;;-40.00;99.90;;;;;;5081003;28;20185;-69
2022/09/14 06:46:39;;;;;;;20.87;18.93;;;-40.00;99.90;;;;;;5080081;28;20183;-69
2022/09/14 06:49:10;;;;;;;22.93;19.23;;;-40.00;99.90;;;;;;5084652;28;20274;-74
2022/09/14 06:51:42;;;;;;;20.10;18.20;;;-40.00;99.90;;;;;;5081749;28;20195;-71
2022/09/14 06:54:10;;;;;;;19.53;17.63;;;-40.00;99.90;;;;;;5082236;28;20179;-71
2022/09/14 06:56:38;;;;;;;29.50;20.10;;;-40.00;99.90;;;;;;5078129;28;20179;-70
2022/09/14 06:59:06;;;;;;;20.93;19.07;;;-40.00;99.90;;;;;;5077209;28;20473;-68
2022/09/14 07:01:32;;;;;;;21.30;19.23;;;-40.00;99.90;;;;;;5081108;28;20590;-76
2022/09/14 07:04:00;;;;;;;22.43;20.23;;;-40.00;99.90;;;;;;5077549;28;20187;-68
2022/09/14 07:06:29;;;;;;;23.53;21.10;;;-40.00;99.90;;;;;;5083428;28;20171;-67
2022/09/14 07:08:55;;;;;;;20.60;18.77;;;-40.00;99.90;;;;;;5081595;28;20290;-71
2022/09/14 07:11:28;;;;;;;21.97;19.97;;;-40.00;99.90;;;;;;5077704;28;20263;-70
2022/09/14 07:13:57;;;;;;;25.57;20.47;;;-40.00;99.90;;;;;;5077804;28;20271;-75
2022/09/14 07:16:24;;;;;;;26.73;19.57;;;-40.00;99.90;;;;;;5083657;28;20182;-68
2022/09/14 07:18:58;;;;;;;21.47;19.23;;;-40.00;99.90;;;;;;5080821;28;20594;-69
2022/09/14 07:21:25;;;;;;;29.03;20.80;;;-40.00;99.90;;;;;;5077624;28;20185;-68
2022/09/14 07:23:51;;;;;;;21.80;19.70;;;-40.00;99.90;;;;;;5084367;28;20187;-75
2022/09/14 07:26:19;;;;;;;20.13;18.03;;;-40.00;99.90;;;;;;5090297;28;20201;-70
2022/09/14 07:28:47;;;;;;;21.27;19.10;;;-40.00;99.90;;;;;;5087687;28;20210;-73
2022/09/14 07:31:35;;;;;;;22.77;17.70;;;-40.00;99.90;;;;;;5089617;28;20257;-68
2022/09/14 07:34:02;;;;;;;22.13;20.00;;;-40.00;99.90;;;;;;5084202;28;20554;-71
2022/09/14 07:36:30;;;;;;;19.30;17.47;;;-40.00;99.90;;;;;;5078199;28;20598;-70
2022/09/14 07:38:56;;;;;;;23.50;20.97;;;-40.00;99.90;;;;;;5082007;28;20213;-74
2022/09/14 07:41:24;;;;;;;23.30;18.47;;;-40.00;99.90;;;;;;5083507;28;20228;-69
2022/09/14 07:43:52;;;;;;;20.00;18.10;;;-40.00;99.90;;;;;;5076258;28;20175;-73
2022/09/14 07:46:19;;;;;;;17.50;15.83;;;-40.00;99.90;;;;;;5075096;28;20187;-72
2022/09/14 07:48:45;;;;;;;22.07;18.40;;;-40.00;99.90;;;;;;5076564;28;20211;-77
2022/09/14 07:51:11;;;;;;;18.70;17.10;;;-40.00;99.90;;;;;;5075986;28;20286;-70
2022/09/14 07:53:41;;;;;;;17.60;16.07;;;-40.00;99.90;;;;;;5076472;28;20685;-76
2022/09/14 07:56:08;;;;;;;17.10;15.50;;;-40.00;99.90;;;;;;5076948;28;20183;-76
2022/09/14 07:58:35;;;;;;;16.63;14.93;;;-40.00;99.90;;;;;;5082833;28;20221;-68
2022/09/14 08:01:04;;;;;;;16.70;15.30;;;-40.00;99.90;;;;;;5085554;28;20678;-69
2022/09/14 08:03:35;;;;;;;19.03;17.23;;;-40.00;99.90;;;;;;5058926;28;20183;-69
2022/09/14 08:06:06;;;;;;;17.30;15.90;;;-40.00;99.90;;;;;;5082655;28;20482;-68
2022/09/14 08:08:35;;;;;;;16.43;14.93;;;-40.00;99.90;;;;;;5080068;28;20999;-66
2022/09/14 08:11:10;;;;;;;15.87;14.17;;;-40.00;99.90;;;;;;5075631;28;20486;-68
2022/09/14 08:13:38;;;;;;;16.93;15.37;;;-40.00;99.90;;;;;;5085640;28;20185;-68
2022/09/14 08:16:04;;;;;;;16.13;14.77;;;-40.00;99.90;;;;;;5078222;28;20586;-67
2022/09/14 08:18:31;;;;;;;15.47;14.17;;;-40.00;99.90;;;;;;5083427;28;20183;-66
2022/09/14 08:21:12;;;;;;;16.37;14.50;;;-40.00;99.90;;;;;;5079864;28;20194;-67
2022/09/14 08:23:39;;;;;;;17.63;16.07;;;-40.00;99.90;;;;;;5081179;28;20248;-70
2022/09/14 08:26:12;;;;;;;17.27;15.60;;;-40.00;99.90;;;;;;5079655;28;20228;-68
2022/09/14 08:28:39;;;;;;;16.97;15.47;;;-40.00;99.90;;;;;;5075765;28;20290;-66
2022/09/14 08:31:16;;;;;;;15.90;14.47;;;-40.00;99.90;;;;;;5083589;28;20626;-69
2022/09/14 08:33:47;;;;;;;16.80;15.03;;;-40.00;99.90;;;;;;5080175;28;20198;-68
2022/09/14 08:36:16;;;;;;;15.90;14.33;;;-40.00;99.90;;;;;;5081000;28;20172;-70
2022/09/14 08:38:42;;;;;;;17.73;15.93;;;-40.00;99.90;;;;;;5081191;28;20273;-70
2022/09/14 08:41:18;;;;;;;17.73;16.03;;;-40.00;99.90;;;;;;5075934;28;20258;-68
2022/09/14 08:43:44;;;;;;;17.70;16.13;;;-40.00;99.90;;;;;;5074797;28;20183;-71
2022/09/14 08:46:25;;;;;;;17.80;16.10;;;-40.00;99.90;;;;;;5080527;28;20659;-67
2022/09/14 08:48:52;;;;;;;17.53;15.13;;;-40.00;99.90;;;;;;5075340;28;20554;-67
2022/09/14 08:51:18;;;;;;;16.43;14.83;;;-40.00;99.90;;;;;;5078735;28;20618;-67
2022/09/14 08:53:44;;;;;;;17.37;15.67;;;-40.00;99.90;;;;;;5080382;28;20178;-68
2022/09/14 08:56:16;;;;;;;16.37;14.73;;;-40.00;99.90;;;;;;5074920;28;20175;-73
2022/09/14 08:59:20;;;;;;;17.50;14.27;;;-40.00;99.90;;;;;;5088990;28;20191;-73
2022/09/14 09:02:07;;;;;;;18.63;16.83;;;-40.00;99.90;;;;;;5084706;28;20333;-69
2022/09/14 09:04:48;;;;;;;17.07;15.40;;;-40.00;99.90;;;;;;5074843;28;20221;-71
2022/09/14 09:07:29;;;;;;;16.50;14.63;;;-40.00;99.90;;;;;;5080485;28;20236;-71
2022/09/14 09:09:57;;;;;;;16.10;14.47;;;-40.00;99.90;;;;;;5086084;28;20208;-68
2022/09/14 09:13:00;;;;;;;16.23;14.77;;;-40.00;99.90;;;;;;5077778;28;20266;-67
2022/09/14 09:15:35;;;;;;;17.60;15.87;;;-40.00;99.90;;;;;;5064436;28;20191;-67
2022/09/14 09:18:18;;;;;;;15.00;13.50;;;-40.00;99.90;;;;;;5075147;28;20266;-67
2022/09/14 09:20:49;;;;;;;21.67;15.37;;;-40.00;99.90;;;;;;5080100;28;20183;-68
2022/09/14 09:23:21;;;;;;;23.87;16.10;;;-40.00;99.90;;;;;;5077856;28;20411;-68
2022/09/14 09:25:56;;;;;;;18.20;16.27;;;-40.00;99.90;;;;;;5078656;28;20183;-66
2022/09/14 09:28:23;;;;;;;23.83;16.00;;;-40.00;99.90;;;;;;5075595;28;20248;-70
2022/09/14 09:30:51;;;;;;;23.60;18.17;;;-40.00;99.90;;;;;;5078914;28;20197;-69
2022/09/14 09:33:22;;;;;;;26.07;16.57;;;-40.00;99.90;;;;;;5078043;28;20179;-68
2022/09/14 09:35:50;;;;;;;17.47;15.57;;;-40.00;99.90;;;;;;5075003;28;20224;-68
2022/09/14 09:38:23;;;;;;;17.47;15.87;;;-40.00;99.90;;;;;;5075105;28;20270;-67
2022/09/14 09:41:06;;;;;;;16.57;13.67;;;-40.00;99.90;;;;;;5075275;28;20266;-68
2022/09/14 09:43:32;;;;;;;16.03;14.70;;;-40.00;99.90;;;;;;5084135;28;20218;-68
2022/09/14 09:45:59;;;;;;;14.47;12.97;;;-40.00;99.90;;;;;;5078278;28;20552;-67
2022/09/14 09:48:32;;;;;;;13.77;12.57;;;-40.00;99.90;;;;;;5081449;28;20199;-68
2022/09/14 09:51:12;;;;;;;13.43;12.33;;;-40.00;99.90;;;;;;5081577;28;20217;-70
2022/09/14 09:53:50;;;;;;;15.87;14.27;;;-40.00;99.90;;;;;;5082498;28;20175;-68
2022/09/14 09:56:27;;;;;;;14.97;11.67;;;-40.00;99.90;;;;;;5078609;28;20205;-67
2022/09/14 09:58:53;;;;;;;14.90;13.37;;;-40.00;99.90;;;;;;5074501;28;20186;-68
2022/09/14 10:01:29;;;;;;;12.97;11.77;;;-40.00;99.90;;;;;;5073629;28;20543;-68
2022/09/14 10:04:16;;;;;;;12.73;11.63;;;-40.00;99.90;;;;;;5081542;28;20187;-72
2022/09/14 10:06:45;;;;;;;12.83;11.60;;;-40.00;99.90;;;;;;5086124;28;20640;-68
2022/09/14 10:09:26;;;;;;;12.37;11.33;;;-40.00;99.90;;;;;;5079947;28;20267;-69
2022/09/14 10:11:57;;;;;;;11.93;10.83;;;-40.00;99.90;;;;;;5084381;28;20174;-68
2022/09/14 10:14:30;;;;;;;11.07;10.07;;;-40.00;99.90;;;;;;5077836;28;20176;-69
2022/09/14 10:17:16;;;;;;;11.67;10.67;;;-40.00;99.90;;;;;;5081178;28;20264;-71
2022/09/14 10:19:47;;;;;;;12.07;11.07;;;-40.00;99.90;;;;;;5083957;28;20586;-68
2022/09/14 10:22:13;;;;;;;11.10;10.10;;;-40.00;99.90;;;;;;5084259;28;20266;-69
2022/09/14 10:24:50;;;;;;;10.53;9.53;;;-40.00;99.90;;;;;;5082820;28;20257;-70
2022/09/14 10:27:54;;;;;;;11.27;9.63;;;-40.00;99.90;;;;;;5082070;28;20647;-69
2022/09/14 10:30:23;;;;;;;11.27;10.30;;;-40.00;99.90;;;;;;5062063;28;20206;-69
2022/09/14 10:32:58;;;;;;;12.47;11.37;;;-40.00;99.90;;;;;;5083776;28;20520;-68
2022/09/14 10:35:51;;;;;;;13.03;11.47;;;-40.00;99.90;;;;;;5077152;28;20594;-68
2022/09/14 10:38:39;;;;;;;13.27;11.23;;;-40.00;99.90;;;;;;5083809;28;20186;-71
2022/09/14 10:41:27;;;;;;;13.83;11.27;;;-40.00;99.90;;;;;;5081759;28;20241;-70
2022/09/14 10:44:02;;;;;;;11.73;10.63;;;-40.00;99.90;;;;;;5077387;28;20171;-68
2022/09/14 10:46:47;;;;;;;14.20;12.83;;;-40.00;99.90;;;;;;5084589;28;20241;-69
2022/09/14 10:49:41;;;;;;;11.83;10.63;;;-40.00;99.90;;;;;;5082815;28;20202;-69
2022/09/14 10:52:18;;;;;;;13.37;12.17;;;-40.00;99.90;;;;;;5089643;28;20198;-75
2022/09/14 10:54:59;;;;;;;13.47;12.20;;;-40.00;99.90;;;;;;5092360;28;20267;-67
2022/09/14 10:57:48;;;;;;;12.03;10.90;;;-40.00;99.90;;;;;;5091850;28;20178;-68
2022/09/14 11:00:21;;;;;;;13.53;12.43;;;-40.00;99.90;;;;;;5082984;28;20574;-68
2022/09/14 11:03:01;;;;;;;13.90;12.70;;;-40.00;99.90;;;;;;5076599;28;20206;-68
2022/09/14 11:05:37;;;;;;;17.57;15.23;;;-40.00;99.90;;;;;;5080300;28;20198;-69
2022/09/14 11:08:28;;;;;;;15.73;14.23;;;-40.00;99.90;;;;;;5083053;28;20234;-70
2022/09/14 11:11:17;;;;;;;17.97;16.17;;;-40.00;99.90;;;;;;5083775;28;20171;-74
2022/09/14 11:14:08;;;;;;;18.17;16.17;;;-40.00;99.90;;;;;;5077396;28;20195;-68
2022/09/14 11:16:39;;;;;;;18.30;16.60;;;-40.00;99.90;;;;;;5076244;28;20171;-67
2022/09/14 11:19:20;;;;;;;16.97;15.47;;;-40.00;99.90;;;;;;5082236;28;20187;-69
2022/09/14 11:21:56;;;;;;;17.57;16.17;;;-40.00;99.90;;;;;;5076689;28;20171;-69
2022/09/14 11:24:33;;;;;;;16.73;15.10;;;-40.00;99.90;;;;;;5082887;28;20594;-68
2022/09/14 11:27:11;;;;;;;16.73;15.23;;;-40.00;99.90;;;;;;5082080;28;20202;-68
2022/09/14 11:29:51;;;;;;;14.60;13.40;;;-40.00;99.90;;;;;;5075136;28;20207;-69
2022/09/14 11:32:40;;;;;;;16.27;14.60;;;-40.00;99.90;;;;;;5081757;28;20606;-75
2022/09/14 11:35:24;;;;;;;15.57;14.17;;;-40.00;99.90;;;;;;5080092;28;20680;-68
2022/09/14 11:37:59;;;;;;;17.90;14.53;;;-40.00;99.90;;;;;;5075216;28;20187;-68
2022/09/14 11:40:39;;;;;;;16.90;15.20;;;-40.00;99.90;;;;;;5079534;28;20219;-69
2022/09/14 11:43:16;;;;;;;16.17;14.77;;;-40.00;99.90;;;;;;5075597;28;20604;-69
2022/09/14 11:45:50;;;;;;;17.37;16.00;;;-40.00;99.90;;;;;;5082006;28;20205;-73
2022/09/14 11:48:38;;;;;;;15.43;14.17;;;-40.00;99.90;;;;;;5085038;28;20194;-69
2022/09/14 11:51:38;;;;;;;15.70;14.37;;;-40.00;99.90;;;;;;5080074;28;20206;-66
2022/09/14 11:54:16;;;;;;;17.20;15.53;;;-40.00;99.90;;;;;;5076533;28;20219;-70
2022/09/14 11:56:47;;;;;;;16.67;14.57;;;-40.00;99.90;;;;;;5081717;28;20179;-69
2022/09/14 11:59:38;;;;;;;19.37;15.53;;;-40.00;99.90;;;;;;5075171;28;20270;-67
2022/09/14 12:02:21;;;;;;;16.00;14.63;;;-40.00;99.90;;;;;;5082253;28;20194;-68
2022/09/14 12:05:09;;;;;;;15.87;14.53;;;-40.00;99.90;;;;;;5082210;28;20473;-67
2022/09/14 12:07:41;;;;;;;16.40;14.70;;;-40.00;99.90;;;;;;5076061;28;20179;-68
2022/09/14 12:10:16;;;;;;;15.23;13.83;;;-40.00;99.90;;;;;;5076115;28;20610;-69
2022/09/14 12:13:01;;;;;;;15.93;14.53;;;-40.00;99.90;;;;;;5082258;28;20457;-70
2022/09/14 12:15:27;;;;;;;16.17;14.70;;;-40.00;99.90;;;;;;5075094;28;20224;-69
2022/09/14 12:18:19;;;;;;;15.27;14.00;;;-40.00;99.90;;;;;;5082110;28;20187;-71
2022/09/14 12:21:07;;;;;;;14.97;13.37;;;-40.00;99.90;;;;;;5074259;28;20179;-68
2022/09/14 12:23:38;;;;;;;14.20;12.90;;;-40.00;99.90;;;;;;5075117;28;20171;-70
2022/09/14 12:26:10;;;;;;;13.93;12.07;;;-40.00;99.90;;;;;;5079414;28;20187;-70
2022/09/14 12:28:39;;;;;;;21.97;14.37;;;-40.00;99.90;;;;;;5077963;28;20202;-69
2022/09/14 12:31:05;;;;;;;15.37;13.97;;;-40.00;99.90;;;;;;5074973;28;20512;-70
2022/09/14 12:33:31;;;;;;;13.77;12.63;;;-40.00;99.90;;;;;;5079600;28;20266;-71
2022/09/14 12:35:57;;;;;;;16.43;14.93;;;-40.00;99.90;;;;;;5082992;28;20197;-69
2022/09/14 12:38:29;;;;;;;13.50;12.40;;;-40.00;99.90;;;;;;5078418;28;20459;-73
2022/09/14 12:41:10;;;;;;;14.53;13.20;;;-40.00;99.90;;;;;;5077770;28;20291;-70
2022/09/14 12:43:36;;;;;;;13.37;12.37;;;-40.00;99.90;;;;;;5075223;28;20598;-69
2022/09/14 12:46:03;;;;;;;13.80;12.80;;;-40.00;99.90;;;;;;5074599;28;20189;-71
2022/09/14 12:48:47;;;;;;;12.90;11.77;;;-40.00;99.90;;;;;;5080101;28;20232;-70